createdAt,value
2022-07-27T00:01:34.916Z,18.66
2022-07-27T00:06:37.787Z,18.65
2022-07-27T00:11:40.536Z,18.28
2022-07-27T00:16:44.601Z,18.05
2022-07-27T00:21:47.317Z,18.03
2022-07-27T00:26:49.944Z,18.46
2022-07-27T00:31:54.046Z,18.03
2022-07-27T00:36:56.845Z,17.72
2022-07-27T00:41:59.661Z,17.81
2022-07-27T00:47:04.257Z,17.70
2022-07-27T00:52:08.531Z,17.83
2022-07-27T00:57:12.002Z,17.43
2022-07-27T01:02:19.896Z,17.52
2022-07-27T01:07:27.350Z,17.48
2022-07-27T01:12:32.730Z,17.78
2022-07-27T01:17:37.355Z,17.10
2022-07-27T01:22:41.389Z,17.38
2022-07-27T01:27:44.323Z,17.47
2022-07-27T01:32:47.017Z,17.59
2022-07-27T01:37:51.057Z,17.29
2022-07-27T01:42:53.899Z,16.62
2022-07-27T01:47:56.852Z,16.97
2022-07-27T01:53:00.863Z,17.03
2022-07-27T01:58:07.108Z,16.88
2022-07-27T02:03:11.050Z,16.85
2022-07-27T02:08:15.264Z,16.55
2022-07-27T02:13:22.711Z,16.77
2022-07-27T02:18:32.820Z,16.86
2022-07-27T02:23:38.964Z,16.94
2022-07-27T02:28:41.648Z,16.23
2022-07-27T02:33:44.329Z,16.64
2022-07-27T02:38:48.486Z,16.62
2022-07-27T02:43:51.313Z,16.34
2022-07-27T02:48:54.062Z,16.35
2022-07-27T02:53:58.166Z,16.39
2022-07-27T02:59:02.044Z,16.61
2022-07-27T03:04:04.944Z,16.70
2022-07-27T03:09:10.244Z,16.36
2022-07-27T03:14:13.152Z,16.20
2022-07-27T03:19:18.093Z,16.42
2022-07-27T03:24:22.224Z,16.17
2022-07-27T03:29:24.880Z,16.12
2022-07-27T03:34:32.586Z,16.36
2022-07-27T03:39:36.633Z,16.21
2022-07-27T03:44:39.360Z,16.31
2022-07-27T03:49:42.241Z,16.43
2022-07-27T03:54:46.274Z,16.40
2022-07-27T03:59:48.962Z,16.13
2022-07-27T04:04:51.744Z,16.33
2022-07-27T04:09:55.721Z,16.59
2022-07-27T04:14:58.400Z,16.64
2022-07-27T04:20:01.437Z,16.50
2022-07-27T04:25:06.349Z,16.22
2022-07-27T04:30:10.828Z,16.34
2022-07-27T04:35:13.496Z,15.93
2022-07-27T04:40:17.886Z,16.28
2022-07-27T04:45:20.720Z,15.97
2022-07-27T04:50:23.709Z,15.97
2022-07-27T04:55:27.838Z,16.00
2022-07-27T05:00:30.724Z,15.66
2022-07-27T05:05:33.643Z,16.11
2022-07-27T05:10:38.050Z,16.25
2022-07-27T05:15:53.896Z,15.85
2022-07-27T05:20:58.540Z,16.08
2022-07-27T05:26:03.347Z,16.54
2022-07-27T05:31:06.284Z,16.74
2022-07-27T05:36:09.262Z,16.54
2022-07-27T05:41:13.354Z,16.69
2022-07-27T05:46:16.439Z,17.08
2022-07-27T05:51:19.216Z,16.58
2022-07-27T05:56:23.403Z,17.08
2022-07-27T06:01:26.182Z,17.34
2022-07-27T06:06:46.622Z,17.18
2022-07-27T06:11:50.675Z,17.67
2022-07-27T06:16:53.413Z,17.61
2022-07-27T06:21:56.990Z,17.90
2022-07-27T06:27:01.485Z,17.90
2022-07-27T06:32:04.387Z,17.62
2022-07-27T06:37:07.786Z,17.83
2022-07-27T06:42:13.930Z,17.80
2022-07-27T06:47:17.066Z,17.88
2022-07-27T06:52:19.966Z,17.96
2022-07-27T06:57:24.617Z,17.66
2022-07-27T07:02:27.532Z,17.30
2022-07-27T07:07:30.206Z,17.61
2022-07-27T07:12:34.639Z,17.88
2022-07-27T07:17:37.823Z,17.72
2022-07-27T07:22:40.830Z,18.12
2022-07-27T07:27:45.095Z,18.08
2022-07-27T07:32:48.203Z,18.03
2022-07-27T07:37:50.975Z,18.38
2022-07-27T07:42:56.870Z,18.01
2022-07-27T07:48:00.876Z,18.09
2022-07-27T07:53:05.214Z,18.30
2022-07-27T07:58:09.490Z,18.35
2022-07-27T08:03:12.816Z,17.96
2022-07-27T08:08:17.088Z,18.30
2022-07-27T08:13:22.587Z,18.33
2022-07-27T08:18:27.471Z,18.61
2022-07-27T08:23:31.708Z,18.01
2022-07-27T08:28:38.401Z,19.08
2022-07-27T08:33:41.286Z,19.09
2022-07-27T08:38:43.980Z,19.32
2022-07-27T08:43:49.921Z,18.89
2022-07-27T08:48:53.664Z,19.89
2022-07-27T08:53:57.172Z,20.04
2022-07-27T08:59:01.184Z,20.05
2022-07-27T09:04:04.337Z,19.91
2022-07-27T09:09:07.295Z,20.06
2022-07-27T09:14:14.259Z,20.25
2022-07-27T09:19:17.002Z,20.31
2022-07-27T09:24:46.963Z,20.36
2022-07-27T09:29:46.701Z,20.53
2022-07-27T09:34:51.694Z,20.77
2022-07-27T09:40:13.466Z,20.91
2022-07-27T09:45:34.500Z,20.84
2022-07-27T09:50:53.073Z,20.77
2022-07-27T09:56:06.871Z,20.82
2022-07-27T10:01:13.230Z,20.59
2022-07-27T10:06:16.864Z,20.74
2022-07-27T10:11:21.688Z,20.60
2022-07-27T10:16:28.912Z,20.52
2022-07-27T10:21:32.776Z,20.99
2022-07-27T10:26:37.536Z,21.09
2022-07-27T10:31:43.280Z,21.07
2022-07-27T10:36:53.368Z,21.01
2022-07-27T10:42:19.140Z,21.08
2022-07-27T10:47:35.409Z,20.85
2022-07-27T10:52:43.139Z,20.91
2022-07-27T10:57:46.109Z,20.87
2022-07-27T11:02:50.158Z,21.32
2022-07-27T11:08:34.502Z,21.38
2022-07-27T11:13:20.568Z,21.50
2022-07-27T11:18:28.327Z,20.73
2022-07-27T11:28:54.777Z,21.65
2022-07-27T11:34:02.683Z,21.61
2022-07-27T11:39:07.524Z,21.79
2022-07-27T11:44:11.662Z,21.95
2022-07-27T11:49:26.853Z,21.63
2022-07-27T11:54:35.225Z,22.09
2022-07-27T11:59:39.175Z,22.45
2022-07-27T12:04:45.626Z,22.74
2022-07-27T12:09:51.220Z,22.39
2022-07-27T12:14:56.595Z,22.07
2022-07-27T12:20:03.252Z,21.83
2022-07-27T12:25:16.060Z,21.85
2022-07-27T12:30:20.026Z,21.54
2022-07-27T12:35:31.547Z,22.35
2022-07-27T12:40:44.957Z,22.76
2022-07-27T12:45:49.331Z,23.12
2022-07-27T12:51:01.572Z,22.87
2022-07-27T12:56:10.386Z,22.78
2022-07-27T13:01:13.123Z,22.67
2022-07-27T13:06:19.005Z,22.51
2022-07-27T13:11:21.710Z,22.52
2022-07-27T13:16:24.518Z,22.70
2022-07-27T13:21:28.732Z,22.19
2022-07-27T13:26:32.777Z,22.42
2022-07-27T13:31:37.275Z,23.14
2022-07-27T13:36:41.689Z,23.93
2022-07-27T13:41:44.362Z,24.09
2022-07-27T13:46:48.366Z,24.52
2022-07-27T13:51:52.402Z,24.21
2022-07-27T13:56:55.159Z,23.50
2022-07-27T14:01:58.046Z,23.49
2022-07-27T14:07:02.434Z,23.46
2022-07-27T14:12:06.069Z,23.20
2022-07-27T14:17:08.947Z,24.06
2022-07-27T14:22:13.050Z,24.79
2022-07-27T14:27:16.343Z,24.84
2022-07-27T14:32:18.931Z,24.30
2022-07-27T14:37:22.951Z,23.68
2022-07-27T14:42:26.019Z,24.07
2022-07-27T14:47:28.781Z,23.97
2022-07-27T14:52:32.838Z,23.79
2022-07-27T14:57:35.752Z,23.59
2022-07-27T15:02:38.828Z,23.46
2022-07-27T15:07:42.946Z,23.32
2022-07-27T15:12:49.063Z,22.73
2022-07-27T15:17:51.831Z,23.51
2022-07-27T15:22:56.144Z,23.27
2022-07-27T15:27:59.104Z,23.35
2022-07-27T15:33:01.885Z,23.07
2022-07-27T15:38:06.246Z,22.94
2022-07-27T15:43:11.718Z,22.96
2022-07-27T15:48:15.947Z,22.89
2022-07-27T15:53:22.316Z,22.25
2022-07-27T15:58:25.498Z,22.92
2022-07-27T16:03:28.550Z,22.58
2022-07-27T16:08:34.548Z,23.16
2022-07-27T16:13:37.609Z,22.85
2022-07-27T16:18:40.441Z,22.86
2022-07-27T16:23:44.538Z,23.06
2022-07-27T16:28:49.312Z,22.81
2022-07-27T16:33:55.134Z,22.79
2022-07-27T16:39:00.053Z,22.59
2022-07-27T16:44:02.837Z,22.38
2022-07-27T16:49:05.596Z,22.21
2022-07-27T16:54:10.165Z,22.04
2022-07-27T16:59:13.285Z,22.16
2022-07-27T17:04:16.280Z,21.96
2022-07-27T17:09:20.468Z,21.84
2022-07-27T17:14:23.387Z,21.79
2022-07-27T17:19:26.306Z,21.41
2022-07-27T17:24:33.833Z,21.54
2022-07-27T17:29:40.362Z,21.42
2022-07-27T17:34:45.248Z,20.94
2022-07-27T17:39:49.260Z,20.46
2022-07-27T17:44:52.052Z,20.67
2022-07-27T17:49:54.925Z,20.57
2022-07-27T17:55:03.240Z,18.33
2022-07-27T18:00:06.727Z,21.06
2022-07-27T18:05:12.751Z,21.02
2022-07-27T18:10:18.434Z,20.93
2022-07-27T18:15:38.806Z,21.06
2022-07-27T18:20:41.619Z,20.93
2022-07-27T18:25:47.235Z,20.55
2022-07-27T18:30:52.234Z,20.83
2022-07-27T18:35:56.166Z,20.29
2022-07-27T18:41:03.055Z,20.86
2022-07-27T18:46:06.658Z,20.79
2022-07-27T18:51:09.834Z,19.14
2022-07-27T18:56:18.279Z,20.78
2022-07-27T19:01:21.376Z,20.59
2022-07-27T19:06:25.888Z,20.60
2022-07-27T19:11:32.271Z,20.52
2022-07-27T19:16:36.380Z,20.47
2022-07-27T19:21:39.886Z,20.26
2022-07-27T19:26:45.671Z,20.08
2022-07-27T19:31:49.039Z,20.25
2022-07-27T19:36:52.267Z,20.08
2022-07-27T19:41:56.352Z,20.19
2022-07-27T19:46:59.137Z,20.11
2022-07-27T19:52:02.931Z,19.83
2022-07-27T19:57:07.379Z,20.01
2022-07-27T20:02:10.254Z,19.48
2022-07-27T20:07:13.010Z,19.66
2022-07-27T20:12:17.221Z,20.07
2022-07-27T20:17:20.145Z,20.09
2022-07-27T20:22:22.947Z,20.04
2022-07-27T20:27:27.106Z,19.95
2022-07-27T20:32:38.953Z,20.06
2022-07-27T20:37:42.321Z,19.92
2022-07-27T20:42:46.906Z,19.57
2022-07-27T20:47:49.687Z,19.75
2022-07-27T20:52:52.357Z,19.54
2022-07-27T20:57:57.606Z,19.57
2022-07-27T21:03:00.476Z,19.39
2022-07-27T21:08:03.268Z,19.72
2022-07-27T21:13:07.621Z,19.73
2022-07-27T21:18:10.434Z,19.75
2022-07-27T21:23:30.952Z,19.56
2022-07-27T21:28:38.420Z,19.56
2022-07-27T21:33:44.072Z,18.96
2022-07-27T21:38:46.727Z,19.49
2022-07-27T21:43:51.363Z,19.22
2022-07-27T21:48:54.087Z,19.38
2022-07-27T21:53:57.251Z,19.12
2022-07-27T21:59:01.256Z,19.29
2022-07-27T22:04:04.050Z,18.75
2022-07-27T22:09:06.875Z,18.73
2022-07-27T22:14:11.213Z,18.92
2022-07-27T22:19:14.996Z,19.17
2022-07-27T22:24:17.898Z,19.23
2022-07-27T22:29:22.122Z,19.10
2022-07-27T22:34:24.837Z,19.09
2022-07-27T22:39:27.693Z,18.85
2022-07-27T22:44:31.710Z,18.86
2022-07-27T22:49:35.644Z,18.60
2022-07-27T22:54:39.261Z,18.65
2022-07-27T22:59:43.573Z,18.78
2022-07-27T23:04:46.868Z,18.77
2022-07-27T23:09:49.633Z,18.66
2022-07-27T23:14:53.860Z,18.48
2022-07-27T23:19:57.099Z,18.43
2022-07-27T23:25:03.590Z,18.47
2022-07-27T23:30:16.061Z,18.33
2022-07-27T23:35:21.876Z,18.02
2022-07-27T23:40:25.085Z,18.20
2022-07-27T23:45:29.544Z,18.50
2022-07-27T23:50:40.209Z,18.32
2022-07-27T23:55:43.113Z,18.29
